Time;durP1;ratioP1;P1;durP2;ratioP2;P2;SDS_P1;SDS_P2;PMS_P1;PMS_P2;Temp;Humidity;BMP_temperature;BMP_pressure;BME280_temperature;BME280_humidity;BME280_pressure;Samples;Min_cycle;Max_cycle;Signal;HPM_P1;HPM_P2
2023/07/18 00:01:44;;;;;;;35.90;10.38;;;;;;;;;;4977217;28;20059;-68
2023/07/18 00:04:11;;;;;;;42.35;10.00;;;;;;;;;;4977638;28;20054;-68
2023/07/18 00:06:41;;;;;;;30.55;10.32;;;;;;;;;;4977331;28;20058;-70
2023/07/18 00:09:09;;;;;;;49.67;12.00;;;;;;;;;;4960598;28;20038;-68
2023/07/18 00:11:36;;;;;;;42.10;10.45;;;;;;;;;;4977274;28;20074;-69
2023/07/18 00:14:03;;;;;;;27.10;9.95;;;;;;;;;;4977071;28;20051;-63
2023/07/18 00:16:31;;;;;;;31.67;10.60;;;;;;;;;;4975767;28;20076;-68
2023/07/18 00:18:59;;;;;;;52.78;11.60;;;;;;;;;;4976720;28;20054;-69
2023/07/18 00:21:27;;;;;;;32.22;11.30;;;;;;;;;;4975001;28;20061;-66
2023/07/18 00:23:54;;;;;;;75.03;13.48;;;;;;;;;;4974638;28;20129;-66
2023/07/18 00:26:24;;;;;;;46.38;12.07;;;;;;;;;;4976200;28;20043;-62
2023/07/18 00:28:53;;;;;;;35.63;10.77;;;;;;;;;;4975517;28;20050;-63
2023/07/18 00:31:21;;;;;;;24.73;10.00;;;;;;;;;;4975325;28;20050;-67
2023/07/18 00:33:49;;;;;;;52.58;12.93;;;;;;;;;;4974635;28;20057;-67
2023/07/18 00:36:16;;;;;;;62.72;12.88;;;;;;;;;;4974285;28;20053;-67
2023/07/18 00:38:44;;;;;;;78.97;13.95;;;;;;;;;;4958111;28;20039;-67
2023/07/18 00:41:12;;;;;;;39.88;12.20;;;;;;;;;;4976130;28;20065;-63
2023/07/18 00:43:39;;;;;;;44.35;11.95;;;;;;;;;;4974320;28;20058;-68
2023/07/18 00:46:08;;;;;;;43.10;10.88;;;;;;;;;;4973255;28;20039;-67
2023/07/18 00:48:36;;;;;;;38.97;12.30;;;;;;;;;;4974671;28;20043;-67
2023/07/18 00:51:04;;;;;;;77.72;14.85;;;;;;;;;;4974062;28;20038;-66
2023/07/18 00:53:32;;;;;;;29.85;11.38;;;;;;;;;;4974317;28;20046;-67
2023/07/18 00:56:00;;;;;;;40.45;12.50;;;;;;;;;;4972994;28;20134;-67
2023/07/18 00:58:28;;;;;;;41.95;12.70;;;;;;;;;;4973761;28;20042;-67
2023/07/18 01:00:59;;;;;;;44.13;12.85;;;;;;;;;;4973377;28;20052;-68
2023/07/18 01:03:29;;;;;;;42.30;11.77;;;;;;;;;;4972735;28;20066;-69
2023/07/18 01:05:57;;;;;;;51.13;12.75;;;;;;;;;;4974435;28;20384;-67
2023/07/18 01:08:24;;;;;;;33.63;11.23;;;;;;;;;;4974224;28;20459;-68
2023/07/18 01:10:51;;;;;;;55.67;12.38;;;;;;;;;;4972800;28;20047;-70
2023/07/18 01:13:19;;;;;;;30.08;9.80;;;;;;;;;;4972589;28;20074;-68
2023/07/18 01:15:46;;;;;;;38.67;9.75;;;;;;;;;;4973194;28;20055;-67
2023/07/18 01:18:14;;;;;;;35.97;9.75;;;;;;;;;;4973074;28;20043;-68
2023/07/18 01:20:48;;;;;;;69.20;12.13;;;;;;;;;;4972915;28;20050;-68
2023/07/18 01:23:15;;;;;;;35.30;10.43;;;;;;;;;;4974674;28;20053;-69
2023/07/18 01:25:43;;;;;;;33.95;8.05;;;;;;;;;;4974236;28;20064;-68
2023/07/18 01:28:10;;;;;;;35.42;7.93;;;;;;;;;;4956444;28;20125;-67
2023/07/18 01:30:38;;;;;;;30.67;8.25;;;;;;;;;;4956540;28;20061;-68
2023/07/18 01:33:06;;;;;;;61.88;10.02;;;;;;;;;;4973763;28;20043;-67
2023/07/18 01:35:34;;;;;;;37.17;8.20;;;;;;;;;;4974967;28;20507;-67
2023/07/18 01:38:03;;;;;;;35.95;7.78;;;;;;;;;;4972910;28;20085;-66
2023/07/18 01:40:31;;;;;;;33.20;8.20;;;;;;;;;;4972249;28;20146;-67
2023/07/18 01:42:58;;;;;;;59.13;9.52;;;;;;;;;;4971788;28;20129;-68
2023/07/18 01:45:27;;;;;;;27.98;7.80;;;;;;;;;;4972419;28;20042;-65
2023/07/18 01:47:56;;;;;;;96.00;12.65;;;;;;;;;;4973388;28;20053;-68
2023/07/18 01:50:23;;;;;;;30.25;7.85;;;;;;;;;;4973057;28;20038;-65
2023/07/18 01:52:51;;;;;;;36.55;7.82;;;;;;;;;;4956068;28;20047;-67
2023/07/18 01:55:19;;;;;;;22.20;6.10;;;;;;;;;;4973494;28;20046;-67
2023/07/18 01:57:48;;;;;;;39.17;7.43;;;;;;;;;;4971599;28;20126;-64
2023/07/18 02:03:34;;;;;;;46.58;7.03;;;;;;;;;;3264413;26;20463;-61
2023/07/18 02:06:01;;;;;;;37.05;7.60;;;;;;;;;;4988401;28;20455;-63
2023/07/18 02:08:28;;;;;;;34.30;6.60;;;;;;;;;;4983776;28;20049;-64
2023/07/18 02:10:55;;;;;;;40.15;7.60;;;;;;;;;;4980402;28;20042;-63
2023/07/18 02:13:22;;;;;;;33.95;6.93;;;;;;;;;;4984512;28;20404;-62
2023/07/18 02:15:50;;;;;;;33.40;6.82;;;;;;;;;;4996266;28;20065;-62
2023/07/18 02:18:18;;;;;;;56.00;8.18;;;;;;;;;;4982341;28;20038;-62
2023/07/18 02:20:45;;;;;;;66.25;8.57;;;;;;;;;;4988969;28;20456;-63
2023/07/18 02:23:12;;;;;;;53.42;8.05;;;;;;;;;;4995632;28;20142;-62
2023/07/18 02:25:39;;;;;;;34.78;6.93;;;;;;;;;;4980532;28;20050;-63
2023/07/18 02:28:07;;;;;;;30.92;7.25;;;;;;;;;;4996665;28;20042;-64
2023/07/18 02:30:35;;;;;;;25.70;6.32;;;;;;;;;;4988414;28;20038;-62
2023/07/18 02:33:04;;;;;;;68.53;9.75;;;;;;;;;;4987114;28;20043;-62
2023/07/18 02:35:32;;;;;;;28.08;6.65;;;;;;;;;;4983525;28;20059;-63
2023/07/18 02:37:59;;;;;;;36.65;6.95;;;;;;;;;;4979767;28;20050;-62
2023/07/18 02:40:26;;;;;;;33.35;7.10;;;;;;;;;;4981734;28;20479;-63
2023/07/18 02:42:53;;;;;;;36.28;6.97;;;;;;;;;;4986303;28;20462;-63
2023/07/18 02:45:21;;;;;;;39.97;6.90;;;;;;;;;;4982830;28;20054;-64
2023/07/18 02:47:48;;;;;;;67.70;9.98;;;;;;;;;;4995005;28;20045;-63
2023/07/18 02:50:15;;;;;;;33.40;7.20;;;;;;;;;;4980222;28;20472;-62
2023/07/18 02:52:43;;;;;;;24.85;6.32;;;;;;;;;;4986732;28;20492;-65
2023/07/18 02:55:10;;;;;;;42.53;7.75;;;;;;;;;;4982337;28;20395;-62
2023/07/18 02:57:37;;;;;;;35.80;7.90;;;;;;;;;;4980619;28;20062;-62
2023/07/18 03:00:10;;;;;;;57.70;8.68;;;;;;;;;;4982384;28;20504;-62
2023/07/18 03:02:39;;;;;;;32.17;7.30;;;;;;;;;;4984403;28;20055;-63
2023/07/18 03:05:07;;;;;;;42.63;8.23;;;;;;;;;;4984110;28;20109;-63
2023/07/18 03:07:34;;;;;;;45.22;8.77;;;;;;;;;;4985165;28;20495;-65
2023/07/18 03:10:03;;;;;;;31.25;7.10;;;;;;;;;;4983071;28;20046;-63
2023/07/18 03:12:30;;;;;;;33.10;6.82;;;;;;;;;;4978325;28;20109;-63
2023/07/18 03:14:58;;;;;;;83.00;9.98;;;;;;;;;;4980269;28;20062;-63
2023/07/18 03:17:25;;;;;;;26.05;6.43;;;;;;;;;;4982634;28;20042;-63
2023/07/18 03:19:53;;;;;;;16.40;6.38;;;;;;;;;;4980227;28;20538;-63
2023/07/18 03:22:20;;;;;;;39.63;7.30;;;;;;;;;;4983563;28;20628;-62
2023/07/18 03:24:48;;;;;;;39.47;7.55;;;;;;;;;;4979562;28;20050;-65
2023/07/18 03:27:15;;;;;;;37.20;8.57;;;;;;;;;;4979130;28;20049;-65
2023/07/18 03:29:43;;;;;;;49.22;8.43;;;;;;;;;;4980582;28;20043;-66
2023/07/18 03:32:10;;;;;;;31.75;6.65;;;;;;;;;;4994374;28;20055;-64
2023/07/18 03:34:38;;;;;;;31.70;6.30;;;;;;;;;;4974745;28;20488;-65
2023/07/18 03:37:06;;;;;;;33.00;6.95;;;;;;;;;;4982127;28;20051;-63
2023/07/18 03:39:35;;;;;;;41.10;7.10;;;;;;;;;;4979221;28;20125;-63
2023/07/18 03:42:03;;;;;;;37.60;7.53;;;;;;;;;;4979772;28;20070;-66
2023/07/18 03:44:30;;;;;;;44.42;8.25;;;;;;;;;;4983286;28;20083;-63
2023/07/18 03:46:56;;;;;;;26.27;6.15;;;;;;;;;;4982077;28;20074;-62
2023/07/18 03:49:43;;;;;;;35.28;7.65;;;;;;;;;;4977249;28;20130;-65
2023/07/18 03:52:10;;;;;;;37.85;7.60;;;;;;;;;;4980679;28;20039;-64
2023/07/18 03:54:37;;;;;;;27.70;7.05;;;;;;;;;;4983524;28;20264;-65
2023/07/18 03:57:05;;;;;;;53.88;8.45;;;;;;;;;;4986164;28;20062;-63
2023/07/18 03:59:32;;;;;;;31.15;6.97;;;;;;;;;;4993500;28;20121;-63
2023/07/18 04:01:59;;;;;;;25.48;6.65;;;;;;;;;;4978307;28;20057;-66
2023/07/18 04:04:27;;;;;;;34.78;7.60;;;;;;;;;;4981354;28;20489;-64
2023/07/18 04:06:54;;;;;;;33.33;7.68;;;;;;;;;;4980551;28;20045;-65
2023/07/18 04:09:21;;;;;;;36.42;7.68;;;;;;;;;;4979246;28;20133;-62
2023/07/18 04:11:48;;;;;;;59.92;8.55;;;;;;;;;;4988071;28;20504;-63
2023/07/18 04:14:15;;;;;;;36.30;7.00;;;;;;;;;;4980128;28;20551;-63
2023/07/18 04:16:42;;;;;;;29.50;6.43;;;;;;;;;;4979591;28;20039;-63
2023/07/18 04:19:10;;;;;;;41.05;7.38;;;;;;;;;;4980179;28;20122;-63
2023/07/18 04:21:36;;;;;;;31.77;6.35;;;;;;;;;;4982459;28;20047;-63
2023/07/18 04:24:04;;;;;;;49.17;6.88;;;;;;;;;;4990036;28;20437;-62
2023/07/18 04:26:31;;;;;;;18.80;4.70;;;;;;;;;;5000753;28;20062;-63
2023/07/18 04:28:58;;;;;;;26.38;5.60;;;;;;;;;;4985378;28;20062;-63
2023/07/18 04:31:25;;;;;;;35.33;6.50;;;;;;;;;;4985543;28;20047;-63
2023/07/18 04:33:53;;;;;;;27.02;5.53;;;;;;;;;;4988671;28;20047;-59
2023/07/18 04:36:20;;;;;;;29.13;6.15;;;;;;;;;;4982307;28;20047;-63
2023/07/18 04:38:47;;;;;;;54.75;6.95;;;;;;;;;;4983475;28;20043;-62
2023/07/18 04:41:14;;;;;;;29.67;6.32;;;;;;;;;;4985934;28;20057;-65
2023/07/18 04:43:41;;;;;;;33.40;5.07;;;;;;;;;;4995283;28;20411;-63
2023/07/18 04:46:10;;;;;;;29.55;4.80;;;;;;;;;;4984752;28;20471;-63
2023/07/18 04:48:38;;;;;;;23.17;4.65;;;;;;;;;;4983236;28;20049;-63
2023/07/18 04:51:05;;;;;;;51.28;6.53;;;;;;;;;;4985859;28;20061;-63
2023/07/18 04:53:32;;;;;;;27.52;5.03;;;;;;;;;;4990428;28;20047;-64
2023/07/18 04:56:00;;;;;;;41.13;5.53;;;;;;;;;;4990394;28;20042;-63
2023/07/18 04:58:28;;;;;;;18.85;4.80;;;;;;;;;;4988768;28;20050;-64
2023/07/18 05:00:56;;;;;;;26.98;4.68;;;;;;;;;;4992607;28;20043;-64
2023/07/18 05:03:24;;;;;;;38.97;5.88;;;;;;;;;;4989382;28;20050;-62
2023/07/18 05:05:52;;;;;;;70.70;8.18;;;;;;;;;;4987444;28;20054;-64
2023/07/18 05:08:19;;;;;;;9.32;3.25;;;;;;;;;;4992722;28;20081;-63
2023/07/18 05:10:47;;;;;;;27.23;4.68;;;;;;;;;;4983801;28;20054;-63
2023/07/18 05:13:14;;;;;;;24.95;4.10;;;;;;;;;;4990925;28;20481;-63
2023/07/18 05:15:42;;;;;;;25.95;4.95;;;;;;;;;;4993856;28;20050;-64
2023/07/18 05:18:09;;;;;;;61.75;6.93;;;;;;;;;;4986914;28;20054;-64
2023/07/18 05:20:36;;;;;;;39.60;5.32;;;;;;;;;;5002513;28;20404;-63
2023/07/18 05:23:03;;;;;;;30.95;4.22;;;;;;;;;;4987004;28;20046;-65
2023/07/18 05:25:30;;;;;;;26.20;5.18;;;;;;;;;;4990122;28;20420;-63
2023/07/18 05:27:58;;;;;;;32.15;4.97;;;;;;;;;;4986935;28;20122;-64
2023/07/18 05:30:25;;;;;;;32.63;5.05;;;;;;;;;;4992128;28;20492;-61
2023/07/18 05:32:55;;;;;;;65.22;7.18;;;;;;;;;;5002710;28;20129;-64
2023/07/18 05:35:22;;;;;;;22.95;4.55;;;;;;;;;;4992672;28;20423;-65
2023/07/18 05:37:49;;;;;;;35.83;5.45;;;;;;;;;;4984441;28;20062;-66
2023/07/18 05:40:16;;;;;;;34.65;5.55;;;;;;;;;;4994211;28;20492;-63
2023/07/18 05:42:48;;;;;;;26.33;4.97;;;;;;;;;;5002071;28;20046;-63
2023/07/18 05:45:15;;;;;;;39.38;5.35;;;;;;;;;;5005204;28;20472;-67
2023/07/18 05:47:42;;;;;;;31.08;5.47;;;;;;;;;;4988549;28;20523;-65
2023/07/18 05:50:09;;;;;;;34.38;5.28;;;;;;;;;;4993445;28;20105;-64
2023/07/18 05:52:37;;;;;;;22.65;4.47;;;;;;;;;;4991447;28;20053;-62
2023/07/18 05:55:04;;;;;;;34.63;5.13;;;;;;;;;;4987060;28;20085;-64
2023/07/18 05:57:31;;;;;;;31.67;5.10;;;;;;;;;;4986310;28;20074;-66
2023/07/18 05:59:58;;;;;;;67.47;8.02;;;;;;;;;;4987733;28;20060;-68
2023/07/18 06:02:25;;;;;;;31.65;5.32;;;;;;;;;;4986401;28;20043;-64
2023/07/18 06:04:53;;;;;;;19.35;4.50;;;;;;;;;;4985596;28;20050;-63
2023/07/18 06:07:19;;;;;;;24.80;3.72;;;;;;;;;;4983749;28;20053;-63
2023/07/18 06:09:49;;;;;;;33.92;5.03;;;;;;;;;;4990340;28;20141;-68
2023/07/18 06:12:16;;;;;;;32.38;4.95;;;;;;;;;;4999958;28;20492;-64
2023/07/18 06:14:43;;;;;;;26.95;4.60;;;;;;;;;;4987822;28;20181;-66
2023/07/18 06:17:10;;;;;;;38.90;5.03;;;;;;;;;;4984674;28;20074;-64
2023/07/18 06:19:37;;;;;;;39.30;5.35;;;;;;;;;;4983366;28;20077;-62
2023/07/18 06:22:05;;;;;;;39.25;4.90;;;;;;;;;;4987707;28;20070;-64
2023/07/18 06:24:32;;;;;;;37.30;4.40;;;;;;;;;;4990799;28;20145;-65
2023/07/18 06:26:59;;;;;;;80.13;7.60;;;;;;;;;;4991439;28;20042;-65
2023/07/18 06:29:26;;;;;;;26.90;4.28;;;;;;;;;;4981542;28;20050;-62
2023/07/18 06:31:56;;;;;;;41.35;4.88;;;;;;;;;;4997593;28;20093;-62
2023/07/18 06:34:23;;;;;;;21.55;4.20;;;;;;;;;;4995371;28;20054;-63
2023/07/18 06:36:50;;;;;;;21.98;3.42;;;;;;;;;;4981759;28;20133;-63
2023/07/18 06:39:18;;;;;;;29.80;4.45;;;;;;;;;;4983767;28;20121;-62
2023/07/18 06:41:45;;;;;;;27.17;4.10;;;;;;;;;;4989460;28;20085;-66
2023/07/18 06:44:14;;;;;;;24.05;3.85;;;;;;;;;;4983983;28;20050;-64
2023/07/18 06:46:42;;;;;;;26.85;4.25;;;;;;;;;;4986933;28;20050;-63
2023/07/18 06:49:10;;;;;;;45.78;5.43;;;;;;;;;;4988172;28;20046;-62
2023/07/18 06:51:37;;;;;;;23.95;3.78;;;;;;;;;;4985162;28;20058;-62
2023/07/18 06:54:04;;;;;;;65.85;6.80;;;;;;;;;;4984073;28;20046;-62
2023/07/18 06:56:31;;;;;;;21.58;3.95;;;;;;;;;;4983092;28;20149;-63
2023/07/18 06:58:58;;;;;;;34.30;4.75;;;;;;;;;;4986941;28;20046;-66
2023/07/18 07:01:25;;;;;;;26.60;3.92;;;;;;;;;;4978679;28;20105;-63
2023/07/18 07:03:55;;;;;;;26.88;3.72;;;;;;;;;;4987007;28;20069;-65
2023/07/18 07:06:23;;;;;;;29.40;4.60;;;;;;;;;;4988930;28;20047;-63
2023/07/18 07:08:51;;;;;;;69.60;7.25;;;;;;;;;;4991395;28;20069;-63
2023/07/18 07:11:18;;;;;;;35.58;4.85;;;;;;;;;;4987685;28;20049;-63
2023/07/18 07:13:46;;;;;;;35.20;4.50;;;;;;;;;;4986141;28;20050;-66
2023/07/18 07:16:13;;;;;;;40.00;4.88;;;;;;;;;;4979019;28;20042;-62
2023/07/18 07:18:41;;;;;;;16.10;3.13;;;;;;;;;;4986364;28;20046;-63
2023/07/18 07:21:08;;;;;;;76.50;7.22;;;;;;;;;;4987893;28;20042;-63
2023/07/18 07:23:35;;;;;;;35.78;4.45;;;;;;;;;;4979005;28;20159;-63
2023/07/18 07:26:02;;;;;;;26.85;3.85;;;;;;;;;;4996009;28;20057;-63
2023/07/18 07:28:29;;;;;;;28.63;3.55;;;;;;;;;;4983835;28;20135;-63
2023/07/18 07:30:56;;;;;;;31.25;3.83;;;;;;;;;;4984987;28;20046;-62
2023/07/18 07:33:23;;;;;;;19.67;2.63;;;;;;;;;;4979479;28;20399;-63
2023/07/18 07:35:52;;;;;;;78.18;7.80;;;;;;;;;;4980694;28;20061;-64
2023/07/18 07:38:19;;;;;;;24.65;3.65;;;;;;;;;;4987960;28;20050;-63
2023/07/18 07:40:46;;;;;;;24.65;3.58;;;;;;;;;;4980520;28;20097;-66
2023/07/18 07:43:13;;;;;;;33.92;4.10;;;;;;;;;;4986454;28;20045;-62
2023/07/18 07:45:41;;;;;;;38.70;4.28;;;;;;;;;;4978538;28;20050;-64
2023/07/18 07:48:08;;;;;;;49.78;4.85;;;;;;;;;;4980324;28;20050;-63
2023/07/18 07:50:35;;;;;;;22.27;2.95;;;;;;;;;;4980227;28;20057;-62
2023/07/18 07:53:02;;;;;;;29.92;3.50;;;;;;;;;;4980605;28;20043;-63
2023/07/18 07:55:30;;;;;;;28.00;3.45;;;;;;;;;;4981004;28;20031;-63
2023/07/18 07:57:57;;;;;;;33.50;3.60;;;;;;;;;;4986289;28;20045;-63
2023/07/18 08:00:24;;;;;;;25.52;3.53;;;;;;;;;;4983631;28;20046;-63
2023/07/18 08:02:52;;;;;;;39.90;4.15;;;;;;;;;;4992906;28;20058;-62
2023/07/18 08:05:20;;;;;;;37.00;3.85;;;;;;;;;;5000022;28;20097;-62
2023/07/18 08:07:48;;;;;;;37.58;3.63;;;;;;;;;;4987652;28;20050;-64
2023/07/18 08:10:16;;;;;;;25.83;3.13;;;;;;;;;;4986853;28;20046;-62
2023/07/18 08:12:43;;;;;;;39.38;3.72;;;;;;;;;;4985110;28;20045;-62
2023/07/18 08:15:10;;;;;;;46.72;4.18;;;;;;;;;;4984031;28;20058;-62
2023/07/18 08:17:37;;;;;;;37.30;3.63;;;;;;;;;;5001945;28;20047;-62
2023/07/18 08:20:07;;;;;;;28.67;3.03;;;;;;;;;;4985677;28;20042;-63
2023/07/18 08:22:34;;;;;;;41.40;3.90;;;;;;;;;;4988539;28;20046;-62
2023/07/18 08:25:01;;;;;;;40.40;3.70;;;;;;;;;;4987313;28;20129;-64
2023/07/18 08:27:28;;;;;;;41.28;3.92;;;;;;;;;;4982700;28;20043;-63
2023/07/18 08:29:55;;;;;;;92.30;7.05;;;;;;;;;;4983752;28;20069;-63
2023/07/18 08:32:21;;;;;;;39.03;3.35;;;;;;;;;;4984191;28;20038;-63
2023/07/18 08:34:48;;;;;;;49.28;4.22;;;;;;;;;;4985277;28;20043;-65
2023/07/18 08:37:15;;;;;;;45.53;4.20;;;;;;;;;;4985722;28;20042;-64
2023/07/18 08:39:41;;;;;;;44.33;3.92;;;;;;;;;;4985023;28;20092;-62
2023/07/18 08:42:12;;;;;;;61.90;5.25;;;;;;;;;;4982928;28;20534;-65
2023/07/18 08:44:39;;;;;;;51.88;4.63;;;;;;;;;;4981921;28;20057;-64
2023/07/18 08:47:06;;;;;;;67.28;5.50;;;;;;;;;;4987200;28;20138;-64
2023/07/18 08:49:35;;;;;;;40.65;4.03;;;;;;;;;;4988122;28;20054;-64
2023/07/18 08:52:04;;;;;;;56.78;4.47;;;;;;;;;;4979998;28;20093;-64
2023/07/18 08:54:33;;;;;;;41.75;4.03;;;;;;;;;;4982275;28;20082;-64
2023/07/18 08:57:01;;;;;;;94.72;7.35;;;;;;;;;;4981402;28;20080;-65
2023/07/18 08:59:28;;;;;;;42.30;3.38;;;;;;;;;;4998050;28;20053;-65
2023/07/18 09:01:54;;;;;;;55.53;4.70;;;;;;;;;;4981916;28;20046;-61
2023/07/18 09:04:21;;;;;;;37.50;3.45;;;;;;;;;;4979478;28;20057;-63
2023/07/18 09:06:49;;;;;;;46.42;4.30;;;;;;;;;;4983128;28;20049;-63
2023/07/18 09:09:21;;;;;;;54.33;4.70;;;;;;;;;;4977083;28;20548;-63
2023/07/18 09:11:58;;;;;;;57.85;4.78;;;;;;;;;;4984369;28;20046;-62
2023/07/18 09:14:30;;;;;;;52.60;4.22;;;;;;;;;;4988138;28;20042;-63
2023/07/18 09:16:58;;;;;;;47.53;4.00;;;;;;;;;;4981731;28;20050;-65
2023/07/18 09:19:45;;;;;;;18.02;2.30;;;;;;;;;;4980397;28;20647;-65
2023/07/18 09:22:13;;;;;;;49.85;4.32;;;;;;;;;;4985941;28;20047;-65
2023/07/18 09:24:41;;;;;;;35.38;3.22;;;;;;;;;;4986191;28;20050;-65
2023/07/18 09:27:09;;;;;;;93.03;7.22;;;;;;;;;;4984115;28;20105;-64
2023/07/18 09:29:35;;;;;;;66.68;5.78;;;;;;;;;;4986430;28;20042;-64
2023/07/18 09:32:03;;;;;;;41.17;3.90;;;;;;;;;;4980623;28;20082;-65
2023/07/18 09:34:30;;;;;;;41.42;3.92;;;;;;;;;;4989745;28;20042;-64
2023/07/18 09:36:58;;;;;;;58.13;4.82;;;;;;;;;;4983352;28;20034;-65
2023/07/18 09:39:25;;;;;;;44.10;3.80;;;;;;;;;;4983861;28;20066;-64
2023/07/18 09:41:52;;;;;;;63.85;5.40;;;;;;;;;;4980134;28;20038;-65
2023/07/18 09:44:20;;;;;;;42.65;3.72;;;;;;;;;;4983332;28;20657;-63
2023/07/18 09:46:50;;;;;;;46.75;4.13;;;;;;;;;;4986237;28;20050;-64
2023/07/18 09:49:17;;;;;;;67.10;5.15;;;;;;;;;;4984579;28;20050;-64
2023/07/18 09:51:47;;;;;;;49.55;4.25;;;;;;;;;;4982733;28;20047;-63
2023/07/18 09:54:14;;;;;;;53.53;4.47;;;;;;;;;;4983103;28;20042;-64
2023/07/18 09:56:43;;;;;;;49.85;4.07;;;;;;;;;;4981009;28;20105;-66
2023/07/18 09:59:09;;;;;;;42.20;4.05;;;;;;;;;;4980803;28;20039;-66
2023/07/18 10:01:37;;;;;;;48.97;4.20;;;;;;;;;;4984382;28;20042;-64
2023/07/18 10:04:04;;;;;;;47.22;4.47;;;;;;;;;;4983445;28;20059;-64
2023/07/18 10:06:32;;;;;;;45.13;3.95;;;;;;;;;;4984344;28;20471;-67
2023/07/18 10:08:59;;;;;;;90.13;6.97;;;;;;;;;;4980451;28;20125;-64
2023/07/18 10:11:25;;;;;;;51.17;4.10;;;;;;;;;;4995096;28;20511;-65
2023/07/18 10:13:55;;;;;;;38.85;3.55;;;;;;;;;;4980346;28;20056;-63
2023/07/18 10:16:22;;;;;;;31.45;2.78;;;;;;;;;;4992117;28;20049;-62
2023/07/18 10:18:50;;;;;;;52.58;4.07;;;;;;;;;;4982740;28;20109;-64
2023/07/18 10:21:49;;;;;;;51.20;4.00;;;;;;;;;;4977983;28;20054;-63
2023/07/18 10:24:21;;;;;;;56.42;4.63;;;;;;;;;;4967740;28;20051;-62
2023/07/18 10:26:50;;;;;;;33.95;2.95;;;;;;;;;;4995017;28;20538;-64
2023/07/18 10:29:17;;;;;;;35.67;3.38;;;;;;;;;;4991037;28;20046;-65
2023/07/18 10:31:44;;;;;;;37.50;3.63;;;;;;;;;;4997260;28;20051;-65
2023/07/18 10:34:14;;;;;;;30.08;2.78;;;;;;;;;;4981579;28;20066;-66
2023/07/18 10:36:55;;;;;;;38.50;3.35;;;;;;;;;;4981823;28;20050;-65
2023/07/18 10:39:34;;;;;;;37.40;3.35;;;;;;;;;;4984427;28;20038;-65
2023/07/18 10:42:20;;;;;;;104.57;7.80;;;;;;;;;;4994959;28;20049;-65
2023/07/18 10:44:47;;;;;;;47.10;4.10;;;;;;;;;;4983701;28;20125;-64
2023/07/18 10:47:15;;;;;;;51.58;4.50;;;;;;;;;;4977531;28;20620;-64
2023/07/18 10:49:44;;;;;;;38.67;3.58;;;;;;;;;;4981174;28;20054;-65
2023/07/18 10:52:12;;;;;;;58.08;5.00;;;;;;;;;;4985088;28;20039;-64
2023/07/18 10:54:45;;;;;;;62.90;5.07;;;;;;;;;;4985514;28;20046;-65
2023/07/18 10:57:13;;;;;;;67.72;5.32;;;;;;;;;;4977230;28;20055;-65
2023/07/18 10:59:46;;;;;;;26.75;2.78;;;;;;;;;;4986121;28;20046;-64
2023/07/18 11:02:12;;;;;;;46.60;4.40;;;;;;;;;;4988352;28;20121;-65
2023/07/18 11:04:39;;;;;;;35.97;3.30;;;;;;;;;;4978212;28;20113;-67
2023/07/18 11:07:09;;;;;;;61.33;5.00;;;;;;;;;;4984308;28;20046;-65
2023/07/18 11:09:36;;;;;;;50.22;4.20;;;;;;;;;;4982516;28;20234;-66
2023/07/18 11:12:04;;;;;;;76.93;5.80;;;;;;;;;;4984702;28;20045;-63
2023/07/18 11:14:37;;;;;;;21.83;2.53;;;;;;;;;;4996010;28;20475;-65
2023/07/18 11:17:08;;;;;;;41.80;3.70;;;;;;;;;;4992761;28;20499;-64
2023/07/18 11:19:35;;;;;;;65.47;5.38;;;;;;;;;;4982708;28;20397;-64
2023/07/18 11:22:02;;;;;;;52.15;4.70;;;;;;;;;;4982636;28;20039;-62
2023/07/18 11:24:29;;;;;;;34.95;3.35;;;;;;;;;;4993461;28;20117;-65
2023/07/18 11:27:15;;;;;;;83.47;6.20;;;;;;;;;;4978979;28;20474;-63
2023/07/18 11:30:09;;;;;;;44.83;3.95;;;;;;;;;;4987425;28;20051;-63
2023/07/18 11:32:40;;;;;;;32.67;2.92;;;;;;;;;;4984271;28;20109;-63
2023/07/18 11:35:07;;;;;;;42.15;3.55;;;;;;;;;;4989046;28;20049;-63
2023/07/18 11:37:35;;;;;;;48.63;4.10;;;;;;;;;;4986448;28;20101;-63
2023/07/18 11:40:09;;;;;;;29.58;2.72;;;;;;;;;;4979169;28;20057;-63
2023/07/18 11:42:42;;;;;;;62.50;4.68;;;;;;;;;;4981597;28;20062;-64
2023/07/18 11:45:09;;;;;;;116.95;8.48;;;;;;;;;;4997712;28;20046;-63
2023/07/18 11:47:37;;;;;;;22.85;2.38;;;;;;;;;;4980791;28;20058;-63
2023/07/18 11:50:11;;;;;;;30.48;3.20;;;;;;;;;;4981945;28;20426;-63
2023/07/18 11:52:37;;;;;;;25.45;2.28;;;;;;;;;;4981865;28;20746;-63
2023/07/18 11:55:04;;;;;;;37.95;3.05;;;;;;;;;;4981170;28;20058;-63
2023/07/18 11:57:31;;;;;;;47.03;4.57;;;;;;;;;;4999738;28;20038;-63
2023/07/18 11:59:58;;;;;;;75.57;6.03;;;;;;;;;;4982514;28;20094;-64
2023/07/18 12:02:25;;;;;;;55.65;4.53;;;;;;;;;;4998775;28;20481;-64
2023/07/18 12:04:52;;;;;;;40.03;3.65;;;;;;;;;;4982150;28;20482;-65
2023/07/18 12:07:18;;;;;;;28.08;2.97;;;;;;;;;;4984057;28;20459;-63
2023/07/18 12:09:45;;;;;;;35.90;3.45;;;;;;;;;;4984646;28;20038;-64
2023/07/18 12:12:11;;;;;;;49.10;4.00;;;;;;;;;;4982625;28;20042;-64
2023/07/18 12:14:38;;;;;;;30.65;2.90;;;;;;;;;;4998440;28;20039;-63
2023/07/18 12:17:05;;;;;;;42.85;3.70;;;;;;;;;;4988426;28;20093;-64
2023/07/18 12:19:31;;;;;;;37.65;3.40;;;;;;;;;;4985498;28;20058;-65
2023/07/18 12:21:58;;;;;;;46.33;3.85;;;;;;;;;;4982480;28;20514;-63
2023/07/18 12:24:24;;;;;;;47.42;4.30;;;;;;;;;;4982458;28;20043;-63
2023/07/18 12:26:51;;;;;;;28.73;2.75;;;;;;;;;;4983019;28;20042;-66
2023/07/18 12:29:18;;;;;;;42.17;3.55;;;;;;;;;;4997853;28;20051;-63
2023/07/18 12:31:48;;;;;;;35.08;3.17;;;;;;;;;;4987197;28;20046;-64
2023/07/18 12:34:16;;;;;;;45.33;3.80;;;;;;;;;;4984632;28;20054;-64
2023/07/18 12:36:43;;;;;;;39.90;3.38;;;;;;;;;;4992452;28;20061;-62
2023/07/18 12:39:10;;;;;;;91.35;7.03;;;;;;;;;;4997055;28;20511;-63
2023/07/18 12:41:37;;;;;;;30.73;2.97;;;;;;;;;;4998047;28;20091;-63
2023/07/18 12:44:03;;;;;;;47.20;3.90;;;;;;;;;;4989632;28;20121;-63
2023/07/18 12:46:30;;;;;;;32.10;3.00;;;;;;;;;;4980381;28;20042;-64
2023/07/18 12:48:57;;;;;;;30.23;2.60;;;;;;;;;;4985662;28;20133;-64
2023/07/18 12:51:27;;;;;;;81.97;6.32;;;;;;;;;;4980035;28;20043;-64
2023/07/18 12:53:54;;;;;;;35.95;3.30;;;;;;;;;;4992253;28;20050;-64
2023/07/18 12:56:21;;;;;;;19.75;2.03;;;;;;;;;;4989036;28;20046;-64
2023/07/18 12:58:48;;;;;;;31.23;2.85;;;;;;;;;;4979732;28;20054;-63
2023/07/18 13:01:16;;;;;;;41.92;3.60;;;;;;;;;;4984222;28;20136;-63
2023/07/18 13:03:42;;;;;;;50.00;4.32;;;;;;;;;;4979653;28;22067;-64
2023/07/18 13:06:09;;;;;;;100.80;7.93;;;;;;;;;;4982101;28;20137;-63
2023/07/18 13:08:36;;;;;;;28.05;2.72;;;;;;;;;;4988858;28;20301;-65
2023/07/18 13:11:03;;;;;;;32.65;2.90;;;;;;;;;;4981762;28;20054;-63
2023/07/18 13:13:30;;;;;;;37.03;3.25;;;;;;;;;;4986710;28;20034;-63
2023/07/18 13:15:57;;;;;;;35.47;3.55;;;;;;;;;;4987588;28;20129;-63
2023/07/18 13:18:23;;;;;;;45.85;3.85;;;;;;;;;;4981132;28;20043;-64
2023/07/18 13:20:50;;;;;;;42.47;3.90;;;;;;;;;;4982150;28;20047;-64
2023/07/18 13:23:17;;;;;;;51.33;3.92;;;;;;;;;;4979096;28;20044;-63
2023/07/18 13:25:44;;;;;;;33.20;2.90;;;;;;;;;;4983257;28;20081;-64
2023/07/18 13:28:10;;;;;;;54.38;4.75;;;;;;;;;;4986487;28;20050;-64
2023/07/18 13:30:39;;;;;;;28.58;2.75;;;;;;;;;;4996039;28;20054;-62
2023/07/18 13:33:08;;;;;;;128.35;8.73;;;;;;;;;;4988434;28;20562;-64
2023/07/18 13:35:34;;;;;;;33.38;3.05;;;;;;;;;;4989199;28;20043;-62
2023/07/18 13:38:01;;;;;;;27.48;2.58;;;;;;;;;;4984495;28;20050;-63
2023/07/18 13:40:28;;;;;;;40.33;3.03;;;;;;;;;;4980951;28;20066;-63
2023/07/18 13:42:54;;;;;;;50.30;3.85;;;;;;;;;;4986809;28;20129;-63
2023/07/18 13:45:21;;;;;;;40.25;3.70;;;;;;;;;;4983557;28;20051;-63
2023/07/18 13:47:50;;;;;;;28.95;2.75;;;;;;;;;;4998542;28;20042;-63
2023/07/18 13:50:17;;;;;;;35.45;3.15;;;;;;;;;;4994067;28;20074;-64
2023/07/18 13:52:56;;;;;;;39.88;3.35;;;;;;;;;;4983286;28;20050;-64
2023/07/18 13:55:23;;;;;;;38.50;3.08;;;;;;;;;;4978093;28;20388;-63
2023/07/18 13:57:49;;;;;;;34.85;3.10;;;;;;;;;;4980445;28;20094;-63
2023/07/18 14:00:16;;;;;;;51.17;3.70;;;;;;;;;;4982009;28;20050;-63
2023/07/18 14:02:43;;;;;;;45.60;3.60;;;;;;;;;;4984379;28;20505;-62
2023/07/18 14:05:10;;;;;;;46.88;3.75;;;;;;;;;;4985663;28;20083;-63
2023/07/18 14:07:37;;;;;;;35.70;3.05;;;;;;;;;;4979429;28;20058;-63
2023/07/18 14:10:04;;;;;;;54.17;4.20;;;;;;;;;;4981887;28;20534;-67
2023/07/18 14:12:31;;;;;;;43.90;3.50;;;;;;;;;;4979626;28;20045;-63
2023/07/18 14:14:58;;;;;;;70.43;5.20;;;;;;;;;;4983235;28;20048;-62
2023/07/18 14:17:25;;;;;;;43.30;3.35;;;;;;;;;;4996923;28;20555;-62
2023/07/18 14:19:55;;;;;;;56.80;4.32;;;;;;;;;;4990486;28;20056;-63
2023/07/18 14:22:21;;;;;;;24.20;2.15;;;;;;;;;;4979239;28;20073;-63
2023/07/18 14:24:49;;;;;;;31.17;2.88;;;;;;;;;;4982059;28;20089;-64
2023/07/18 14:27:16;;;;;;;52.33;3.97;;;;;;;;;;4996929;28;20055;-63
2023/07/18 14:29:43;;;;;;;33.60;2.90;;;;;;;;;;4981612;28;20117;-65
2023/07/18 14:32:09;;;;;;;26.55;2.47;;;;;;;;;;4983945;28;20046;-63
2023/07/18 14:34:36;;;;;;;48.97;3.80;;;;;;;;;;4982390;28;20411;-63
2023/07/18 14:37:06;;;;;;;46.08;3.75;;;;;;;;;;4982525;28;20042;-63